sensor_id;sensor_type;location;lat;lon;timestamp;temperature;humidity
11152;DHT22;5630;49.342;10.802;2023-04-06T00:01:01;1.00;99.90
11152;DHT22;5630;49.342;10.802;2023-04-06T00:03:26;1.00;99.90
11152;DHT22;5630;49.342;10.802;2023-04-06T00:05:52;0.90;99.90
11152;DHT22;5630;49.342;10.802;2023-04-06T00:08:18;0.90;99.90
11152;DHT22;5630;49.342;10.802;2023-04-06T00:10:44;0.80;99.90
11152;DHT22;5630;49.342;10.802;2023-04-06T00:13:09;0.80;99.90
11152;DHT22;5630;49.342;10.802;2023-04-06T00:15:35;0.80;99.90
11152;DHT22;5630;49.342;10.802;2023-04-06T00:18:02;0.80;99.90
11152;DHT22;5630;49.342;10.802;2023-04-06T00:20:27;0.80;99.90
11152;DHT22;5630;49.342;10.802;2023-04-06T00:22:53;0.80;99.90
11152;DHT22;5630;49.342;10.802;2023-04-06T00:25:19;0.70;99.90
11152;DHT22;5630;49.342;10.802;2023-04-06T00:27:45;0.80;99.90
11152;DHT22;5630;49.342;10.802;2023-04-06T00:30:11;0.80;99.90
11152;DHT22;5630;49.342;10.802;2023-04-06T00:32:37;0.80;99.90
11152;DHT22;5630;49.342;10.802;2023-04-06T00:35:05;0.80;99.90
11152;DHT22;5630;49.342;10.802;2023-04-06T00:37:32;0.80;99.90
11152;DHT22;5630;49.342;10.802;2023-04-06T00:39:57;0.80;99.90
11152;DHT22;5630;49.342;10.802;2023-04-06T00:42:24;0.80;99.90
11152;DHT22;5630;49.342;10.802;2023-04-06T00:44:57;0.80;99.90
11152;DHT22;5630;49.342;10.802;2023-04-06T00:47:24;0.80;99.90
11152;DHT22;5630;49.342;10.802;2023-04-06T00:49:53;0.80;99.90
11152;DHT22;5630;49.342;10.802;2023-04-06T00:52:19;0.80;99.90
11152;DHT22;5630;49.342;10.802;2023-04-06T00:54:45;0.70;99.90
11152;DHT22;5630;49.342;10.802;2023-04-06T00:57:12;0.70;99.90
11152;DHT22;5630;49.342;10.802;2023-04-06T00:59:38;0.80;99.90
11152;DHT22;5630;49.342;10.802;2023-04-06T01:02:04;0.70;99.90
11152;DHT22;5630;49.342;10.802;2023-04-06T01:04:30;0.70;99.90
11152;DHT22;5630;49.342;10.802;2023-04-06T01:06:56;0.70;99.90
11152;DHT22;5630;49.342;10.802;2023-04-06T01:09:22;0.70;99.90
11152;DHT22;5630;49.342;10.802;2023-04-06T01:11:47;0.70;99.90
11152;DHT22;5630;49.342;10.802;2023-04-06T01:14:14;0.70;99.90
11152;DHT22;5630;49.342;10.802;2023-04-06T01:16:41;0.60;99.90
11152;DHT22;5630;49.342;10.802;2023-04-06T01:19:08;0.60;99.90
11152;DHT22;5630;49.342;10.802;2023-04-06T01:21:34;0.60;99.90
11152;DHT22;5630;49.342;10.802;2023-04-06T01:24:00;0.60;99.90
11152;DHT22;5630;49.342;10.802;2023-04-06T01:26:25;0.60;99.90
11152;DHT22;5630;49.342;10.802;2023-04-06T01:28:51;0.50;99.90
11152;DHT22;5630;49.342;10.802;2023-04-06T01:31:17;0.50;99.90
11152;DHT22;5630;49.342;10.802;2023-04-06T01:33:43;0.50;99.90
11152;DHT22;5630;49.342;10.802;2023-04-06T01:36:08;0.40;99.90
11152;DHT22;5630;49.342;10.802;2023-04-06T01:38:34;0.40;99.90
11152;DHT22;5630;49.342;10.802;2023-04-06T01:41:00;0.40;99.90
11152;DHT22;5630;49.342;10.802;2023-04-06T01:43:26;0.40;99.90
11152;DHT22;5630;49.342;10.802;2023-04-06T01:45:52;0.40;99.90
11152;DHT22;5630;49.342;10.802;2023-04-06T01:48:18;0.30;99.90
11152;DHT22;5630;49.342;10.802;2023-04-06T01:50:44;0.30;99.90
11152;DHT22;5630;49.342;10.802;2023-04-06T01:53:10;0.30;99.90
11152;DHT22;5630;49.342;10.802;2023-04-06T01:55:35;0.30;99.90
11152;DHT22;5630;49.342;10.802;2023-04-06T01:58:01;0.30;99.90
11152;DHT22;5630;49.342;10.802;2023-04-06T02:00:26;0.30;99.90
11152;DHT22;5630;49.342;10.802;2023-04-06T02:02:52;0.20;99.90
11152;DHT22;5630;49.342;10.802;2023-04-06T02:05:19;0.20;99.90
11152;DHT22;5630;49.342;10.802;2023-04-06T02:07:44;0.20;99.90
11152;DHT22;5630;49.342;10.802;2023-04-06T02:10:14;0.20;99.90
11152;DHT22;5630;49.342;10.802;2023-04-06T02:12:40;0.20;99.90
11152;DHT22;5630;49.342;10.802;2023-04-06T02:15:06;0.20;99.90
11152;DHT22;5630;49.342;10.802;2023-04-06T02:17:31;0.10;99.90
11152;DHT22;5630;49.342;10.802;2023-04-06T02:19:57;0.10;99.90
11152;DHT22;5630;49.342;10.802;2023-04-06T02:22:23;0.10;99.90
11152;DHT22;5630;49.342;10.802;2023-04-06T02:24:48;0.10;99.90
11152;DHT22;5630;49.342;10.802;2023-04-06T02:27:15;0.00;99.90
11152;DHT22;5630;49.342;10.802;2023-04-06T02:29:40;0.10;99.90
11152;DHT22;5630;49.342;10.802;2023-04-06T02:32:06;0.00;99.90
11152;DHT22;5630;49.342;10.802;2023-04-06T02:34:32;0.00;99.90
11152;DHT22;5630;49.342;10.802;2023-04-06T02:36:57;-0.10;99.90
11152;DHT22;5630;49.342;10.802;2023-04-06T02:39:23;-0.10;99.90
11152;DHT22;5630;49.342;10.802;2023-04-06T02:41:49;-0.10;99.90
11152;DHT22;5630;49.342;10.802;2023-04-06T02:44:15;-0.10;99.90
11152;DHT22;5630;49.342;10.802;2023-04-06T02:46:40;-0.10;99.90
11152;DHT22;5630;49.342;10.802;2023-04-06T02:49:06;-0.10;99.90
11152;DHT22;5630;49.342;10.802;2023-04-06T02:51:32;-0.10;99.90
11152;DHT22;5630;49.342;10.802;2023-04-06T02:53:58;-0.20;99.90
11152;DHT22;5630;49.342;10.802;2023-04-06T02:56:24;-0.20;99.90
11152;DHT22;5630;49.342;10.802;2023-04-06T02:58:50;-0.20;99.90
11152;DHT22;5630;49.342;10.802;2023-04-06T03:01:16;-0.20;99.90
11152;DHT22;5630;49.342;10.802;2023-04-06T03:03:42;-0.30;99.90
11152;DHT22;5630;49.342;10.802;2023-04-06T03:06:07;-0.20;99.90
11152;DHT22;5630;49.342;10.802;2023-04-06T03:08:33;-0.30;99.90
11152;DHT22;5630;49.342;10.802;2023-04-06T03:10:58;-0.30;99.90
11152;DHT22;5630;49.342;10.802;2023-04-06T03:13:24;-0.20;99.90
11152;DHT22;5630;49.342;10.802;2023-04-06T03:15:50;-0.30;99.90
11152;DHT22;5630;49.342;10.802;2023-04-06T03:18:15;-0.30;99.90
11152;DHT22;5630;49.342;10.802;2023-04-06T03:20:41;-0.30;99.90
11152;DHT22;5630;49.342;10.802;2023-04-06T03:23:07;-0.30;99.90
11152;DHT22;5630;49.342;10.802;2023-04-06T03:25:32;-0.30;99.90
11152;DHT22;5630;49.342;10.802;2023-04-06T03:27:58;-0.30;99.90
11152;DHT22;5630;49.342;10.802;2023-04-06T03:30:24;-0.40;99.90
11152;DHT22;5630;49.342;10.802;2023-04-06T03:32:49;-0.30;99.90
11152;DHT22;5630;49.342;10.802;2023-04-06T03:35:15;-0.30;99.90
11152;DHT22;5630;49.342;10.802;2023-04-06T03:37:41;-0.30;99.90
11152;DHT22;5630;49.342;10.802;2023-04-06T03:40:07;-0.40;99.90
11152;DHT22;5630;49.342;10.802;2023-04-06T03:42:32;-0.40;99.90
11152;DHT22;5630;49.342;10.802;2023-04-06T03:44:58;-0.40;99.90
11152;DHT22;5630;49.342;10.802;2023-04-06T03:47:24;-0.40;99.90
11152;DHT22;5630;49.342;10.802;2023-04-06T03:49:50;-0.50;99.90
11152;DHT22;5630;49.342;10.802;2023-04-06T03:52:16;-0.40;99.90
11152;DHT22;5630;49.342;10.802;2023-04-06T03:54:41;-0.40;99.90
11152;DHT22;5630;49.342;10.802;2023-04-06T03:57:07;-0.50;99.90
11152;DHT22;5630;49.342;10.802;2023-04-06T03:59:32;-0.50;99.90
11152;DHT22;5630;49.342;10.802;2023-04-06T04:01:58;-0.50;99.90
11152;DHT22;5630;49.342;10.802;2023-04-06T04:04:24;-0.60;99.90
11152;DHT22;5630;49.342;10.802;2023-04-06T04:06:50;-0.50;99.90
11152;DHT22;5630;49.342;10.802;2023-04-06T04:09:15;-0.50;99.90
11152;DHT22;5630;49.342;10.802;2023-04-06T04:11:41;-0.60;99.90
11152;DHT22;5630;49.342;10.802;2023-04-06T04:14:06;-0.60;99.90
11152;DHT22;5630;49.342;10.802;2023-04-06T04:16:32;-0.60;99.90
11152;DHT22;5630;49.342;10.802;2023-04-06T04:18:58;-0.60;99.90
11152;DHT22;5630;49.342;10.802;2023-04-06T04:21:24;-0.60;99.90
11152;DHT22;5630;49.342;10.802;2023-04-06T04:23:51;-0.60;99.90
11152;DHT22;5630;49.342;10.802;2023-04-06T04:26:18;-0.70;99.90
11152;DHT22;5630;49.342;10.802;2023-04-06T04:28:43;-0.60;99.90
11152;DHT22;5630;49.342;10.802;2023-04-06T04:31:09;-0.70;99.90
11152;DHT22;5630;49.342;10.802;2023-04-06T04:33:34;-0.70;99.90
11152;DHT22;5630;49.342;10.802;2023-04-06T04:36:00;-0.70;99.90
11152;DHT22;5630;49.342;10.802;2023-04-06T04:38:26;-0.80;99.90
11152;DHT22;5630;49.342;10.802;2023-04-06T04:40:51;-0.80;99.90
11152;DHT22;5630;49.342;10.802;2023-04-06T04:43:17;-0.70;99.90
11152;DHT22;5630;49.342;10.802;2023-04-06T04:45:42;-0.80;99.90
11152;DHT22;5630;49.342;10.802;2023-04-06T04:48:08;-0.70;99.90
11152;DHT22;5630;49.342;10.802;2023-04-06T04:50:34;-0.80;99.90
11152;DHT22;5630;49.342;10.802;2023-04-06T04:52:59;-0.80;99.90
11152;DHT22;5630;49.342;10.802;2023-04-06T04:55:25;-0.80;99.90
11152;DHT22;5630;49.342;10.802;2023-04-06T04:57:51;-0.70;99.90
11152;DHT22;5630;49.342;10.802;2023-04-06T05:00:17;-0.70;99.90
11152;DHT22;5630;49.342;10.802;2023-04-06T05:02:42;-0.70;99.90
11152;DHT22;5630;49.342;10.802;2023-04-06T05:05:08;-0.70;99.90
11152;DHT22;5630;49.342;10.802;2023-04-06T05:07:34;-0.70;99.90
11152;DHT22;5630;49.342;10.802;2023-04-06T05:10:00;-0.70;99.90
11152;DHT22;5630;49.342;10.802;2023-04-06T05:12:26;-0.70;99.90
11152;DHT22;5630;49.342;10.802;2023-04-06T05:14:53;-0.70;99.90
11152;DHT22;5630;49.342;10.802;2023-04-06T05:17:19;-0.70;99.90
11152;DHT22;5630;49.342;10.802;2023-04-06T05:19:45;-0.60;99.90
11152;DHT22;5630;49.342;10.802;2023-04-06T05:22:11;-0.60;99.90
11152;DHT22;5630;49.342;10.802;2023-04-06T05:24:36;-0.60;99.90
11152;DHT22;5630;49.342;10.802;2023-04-06T05:27:02;-0.50;99.90
11152;DHT22;5630;49.342;10.802;2023-04-06T05:29:28;-0.50;99.90
11152;DHT22;5630;49.342;10.802;2023-04-06T05:31:54;-0.50;99.90
11152;DHT22;5630;49.342;10.802;2023-04-06T05:34:20;-0.40;99.90
11152;DHT22;5630;49.342;10.802;2023-04-06T05:36:46;-0.40;99.90
11152;DHT22;5630;49.342;10.802;2023-04-06T05:39:12;-0.40;99.90
11152;DHT22;5630;49.342;10.802;2023-04-06T05:41:37;-0.30;99.90
11152;DHT22;5630;49.342;10.802;2023-04-06T05:44:03;-0.30;99.90
11152;DHT22;5630;49.342;10.802;2023-04-06T05:46:29;-0.20;99.90
11152;DHT22;5630;49.342;10.802;2023-04-06T05:48:54;-0.20;99.90
11152;DHT22;5630;49.342;10.802;2023-04-06T05:51:20;-0.10;99.90
11152;DHT22;5630;49.342;10.802;2023-04-06T05:53:46;-0.10;99.90
11152;DHT22;5630;49.342;10.802;2023-04-06T05:56:12;0.00;99.90
11152;DHT22;5630;49.342;10.802;2023-04-06T05:58:37;0.10;99.90
11152;DHT22;5630;49.342;10.802;2023-04-06T06:01:03;0.10;99.90
11152;DHT22;5630;49.342;10.802;2023-04-06T06:03:30;0.10;99.90
11152;DHT22;5630;49.342;10.802;2023-04-06T06:06:03;0.20;99.90
11152;DHT22;5630;49.342;10.802;2023-04-06T06:08:29;0.30;99.90
11152;DHT22;5630;49.342;10.802;2023-04-06T06:10:55;0.50;99.90
11152;DHT22;5630;49.342;10.802;2023-04-06T06:13:21;0.50;99.90
11152;DHT22;5630;49.342;10.802;2023-04-06T06:15:48;0.60;99.90
11152;DHT22;5630;49.342;10.802;2023-04-06T06:18:13;0.70;99.90
11152;DHT22;5630;49.342;10.802;2023-04-06T06:20:39;0.90;99.90
11152;DHT22;5630;49.342;10.802;2023-04-06T06:23:04;1.00;99.90
11152;DHT22;5630;49.342;10.802;2023-04-06T06:25:30;1.10;99.90
11152;DHT22;5630;49.342;10.802;2023-04-06T06:27:56;1.20;99.90
11152;DHT22;5630;49.342;10.802;2023-04-06T06:30:22;1.40;99.90
11152;DHT22;5630;49.342;10.802;2023-04-06T06:32:48;1.60;99.90
11152;DHT22;5630;49.342;10.802;2023-04-06T06:35:14;1.70;99.90
11152;DHT22;5630;49.342;10.802;2023-04-06T06:37:39;1.90;99.90
11152;DHT22;5630;49.342;10.802;2023-04-06T06:40:05;2.00;99.90
11152;DHT22;5630;49.342;10.802;2023-04-06T06:42:31;2.20;99.90
11152;DHT22;5630;49.342;10.802;2023-04-06T06:44:57;2.40;99.90
11152;DHT22;5630;49.342;10.802;2023-04-06T06:47:22;2.60;99.90
11152;DHT22;5630;49.342;10.802;2023-04-06T06:49:48;2.80;99.90
11152;DHT22;5630;49.342;10.802;2023-04-06T06:52:13;3.00;99.90
11152;DHT22;5630;49.342;10.802;2023-04-06T06:54:39;3.20;99.90
11152;DHT22;5630;49.342;10.802;2023-04-06T06:57:05;3.40;99.90
11152;DHT22;5630;49.342;10.802;2023-04-06T06:59:31;3.60;99.90
11152;DHT22;5630;49.342;10.802;2023-04-06T07:01:56;3.70;99.90
11152;DHT22;5630;49.342;10.802;2023-04-06T07:04:22;4.00;99.90
11152;DHT22;5630;49.342;10.802;2023-04-06T07:06:47;4.20;99.90
11152;DHT22;5630;49.342;10.802;2023-04-06T07:09:13;4.30;99.90
11152;DHT22;5630;49.342;10.802;2023-04-06T07:11:39;4.40;99.90
11152;DHT22;5630;49.342;10.802;2023-04-06T07:14:04;4.60;99.90
11152;DHT22;5630;49.342;10.802;2023-04-06T07:16:30;4.90;99.90
11152;DHT22;5630;49.342;10.802;2023-04-06T07:18:56;5.10;99.90
11152;DHT22;5630;49.342;10.802;2023-04-06T07:21:21;5.20;99.90
11152;DHT22;5630;49.342;10.802;2023-04-06T07:23:47;5.40;99.90
11152;DHT22;5630;49.342;10.802;2023-04-06T07:26:13;5.50;99.90
11152;DHT22;5630;49.342;10.802;2023-04-06T07:28:39;5.80;99.90
11152;DHT22;5630;49.342;10.802;2023-04-06T07:31:05;5.90;99.90
11152;DHT22;5630;49.342;10.802;2023-04-06T07:33:30;6.10;99.90
11152;DHT22;5630;49.342;10.802;2023-04-06T07:35:56;6.40;99.90
11152;DHT22;5630;49.342;10.802;2023-04-06T07:38:23;6.70;99.90
11152;DHT22;5630;49.342;10.802;2023-04-06T07:40:49;6.60;99.90
11152;DHT22;5630;49.342;10.802;2023-04-06T07:43:15;6.80;99.90
11152;DHT22;5630;49.342;10.802;2023-04-06T07:45:41;6.90;99.90
11152;DHT22;5630;49.342;10.802;2023-04-06T07:48:06;7.00;99.90
11152;DHT22;5630;49.342;10.802;2023-04-06T07:50:32;7.10;99.90
11152;DHT22;5630;49.342;10.802;2023-04-06T07:52:58;7.10;99.90
11152;DHT22;5630;49.342;10.802;2023-04-06T07:55:23;7.40;99.90
11152;DHT22;5630;49.342;10.802;2023-04-06T07:57:49;7.60;99.90
11152;DHT22;5630;49.342;10.802;2023-04-06T08:00:16;7.70;99.90
11152;DHT22;5630;49.342;10.802;2023-04-06T08:02:41;7.80;99.90
11152;DHT22;5630;49.342;10.802;2023-04-06T08:05:07;8.00;99.90
11152;DHT22;5630;49.342;10.802;2023-04-06T08:07:33;8.20;99.90
11152;DHT22;5630;49.342;10.802;2023-04-06T08:09:58;8.40;99.90
11152;DHT22;5630;49.342;10.802;2023-04-06T08:12:24;8.60;99.90
11152;DHT22;5630;49.342;10.802;2023-04-06T08:14:50;8.60;99.90
11152;DHT22;5630;49.342;10.802;2023-04-06T08:17:15;8.60;99.90
11152;DHT22;5630;49.342;10.802;2023-04-06T08:19:43;8.70;99.90
11152;DHT22;5630;49.342;10.802;2023-04-06T08:22:09;8.70;99.90
11152;DHT22;5630;49.342;10.802;2023-04-06T08:24:35;8.80;99.90
11152;DHT22;5630;49.342;10.802;2023-04-06T08:27:01;9.10;99.90
11152;DHT22;5630;49.342;10.802;2023-04-06T08:29:26;9.30;99.90
11152;DHT22;5630;49.342;10.802;2023-04-06T08:31:52;9.40;99.90
11152;DHT22;5630;49.342;10.802;2023-04-06T08:34:18;9.60;99.90
11152;DHT22;5630;49.342;10.802;2023-04-06T08:36:43;9.80;99.80
11152;DHT22;5630;49.342;10.802;2023-04-06T08:39:10;10.00;99.60
11152;DHT22;5630;49.342;10.802;2023-04-06T08:41:36;10.20;98.90
11152;DHT22;5630;49.342;10.802;2023-04-06T08:44:02;10.40;98.90
11152;DHT22;5630;49.342;10.802;2023-04-06T08:46:30;10.70;98.90
11152;DHT22;5630;49.342;10.802;2023-04-06T08:49:01;10.70;97.70
11152;DHT22;5630;49.342;10.802;2023-04-06T08:51:28;10.70;98.00
11152;DHT22;5630;49.342;10.802;2023-04-06T08:53:56;10.70;97.20
11152;DHT22;5630;49.342;10.802;2023-04-06T08:56:22;10.90;96.20
11152;DHT22;5630;49.342;10.802;2023-04-06T08:58:48;11.10;96.50
11152;DHT22;5630;49.342;10.802;2023-04-06T09:01:17;11.00;95.90
11152;DHT22;5630;49.342;10.802;2023-04-06T09:03:43;11.10;95.10
11152;DHT22;5630;49.342;10.802;2023-04-06T09:06:11;11.50;94.80
11152;DHT22;5630;49.342;10.802;2023-04-06T09:08:39;11.50;94.60
11152;DHT22;5630;49.342;10.802;2023-04-06T09:11:06;11.80;93.80
11152;DHT22;5630;49.342;10.802;2023-04-06T09:13:43;11.80;95.10
11152;DHT22;5630;49.342;10.802;2023-04-06T09:16:09;11.70;93.10
11152;DHT22;5630;49.342;10.802;2023-04-06T09:18:34;12.10;93.40
11152;DHT22;5630;49.342;10.802;2023-04-06T09:21:01;12.40;92.40
11152;DHT22;5630;49.342;10.802;2023-04-06T09:23:27;12.60;92.10
11152;DHT22;5630;49.342;10.802;2023-04-06T09:28:44;12.60;90.40
11152;DHT22;5630;49.342;10.802;2023-04-06T09:31:11;12.40;90.70
11152;DHT22;5630;49.342;10.802;2023-04-06T09:33:42;12.90;91.00
11152;DHT22;5630;49.342;10.802;2023-04-06T09:36:08;13.40;91.10
11152;DHT22;5630;49.342;10.802;2023-04-06T09:38:37;13.40;90.10
11152;DHT22;5630;49.342;10.802;2023-04-06T09:41:03;13.50;88.10
11152;DHT22;5630;49.342;10.802;2023-04-06T09:43:29;13.70;86.90
11152;DHT22;5630;49.342;10.802;2023-04-06T09:45:56;13.90;87.50
11152;DHT22;5630;49.342;10.802;2023-04-06T09:48:24;13.80;87.40
11152;DHT22;5630;49.342;10.802;2023-04-06T09:50:54;14.00;83.60
11152;DHT22;5630;49.342;10.802;2023-04-06T09:53:26;14.00;86.80
11152;DHT22;5630;49.342;10.802;2023-04-06T09:55:56;13.80;84.00
11152;DHT22;5630;49.342;10.802;2023-04-06T09:58:23;14.00;85.60
11152;DHT22;5630;49.342;10.802;2023-04-06T10:03:22;14.20;83.70
11152;DHT22;5630;49.342;10.802;2023-04-06T10:05:55;14.60;84.10
11152;DHT22;5630;49.342;10.802;2023-04-06T10:08:24;14.50;83.80
11152;DHT22;5630;49.342;10.802;2023-04-06T10:10:53;14.10;82.90
11152;DHT22;5630;49.342;10.802;2023-04-06T10:13:19;14.20;83.60
11152;DHT22;5630;49.342;10.802;2023-04-06T10:15:45;14.40;82.80
11152;DHT22;5630;49.342;10.802;2023-04-06T10:18:11;14.60;82.20
11152;DHT22;5630;49.342;10.802;2023-04-06T10:21:03;14.90;80.80
11152;DHT22;5630;49.342;10.802;2023-04-06T10:23:33;14.80;77.60
11152;DHT22;5630;49.342;10.802;2023-04-06T10:26:01;14.90;76.60
11152;DHT22;5630;49.342;10.802;2023-04-06T10:28:31;14.80;75.80
11152;DHT22;5630;49.342;10.802;2023-04-06T10:30:59;15.00;78.40
11152;DHT22;5630;49.342;10.802;2023-04-06T10:33:26;15.00;74.50
11152;DHT22;5630;49.342;10.802;2023-04-06T10:35:51;15.60;77.20
11152;DHT22;5630;49.342;10.802;2023-04-06T10:38:18;15.70;78.10
11152;DHT22;5630;49.342;10.802;2023-04-06T10:40:47;15.90;77.30
11152;DHT22;5630;49.342;10.802;2023-04-06T10:43:21;16.20;75.00
11152;DHT22;5630;49.342;10.802;2023-04-06T10:45:57;16.10;75.90
11152;DHT22;5630;49.342;10.802;2023-04-06T10:48:25;15.50;75.20
11152;DHT22;5630;49.342;10.802;2023-04-06T10:50:52;15.70;75.30
11152;DHT22;5630;49.342;10.802;2023-04-06T10:53:25;15.70;74.70
11152;DHT22;5630;49.342;10.802;2023-04-06T10:55:54;15.70;73.30
11152;DHT22;5630;49.342;10.802;2023-04-06T10:58:20;15.80;73.30
11152;DHT22;5630;49.342;10.802;2023-04-06T11:00:47;15.90;76.30
11152;DHT22;5630;49.342;10.802;2023-04-06T11:03:13;16.20;73.50
11152;DHT22;5630;49.342;10.802;2023-04-06T11:05:46;16.30;72.60
11152;DHT22;5630;49.342;10.802;2023-04-06T11:08:23;16.20;72.40
11152;DHT22;5630;49.342;10.802;2023-04-06T11:10:49;15.50;72.70
11152;DHT22;5630;49.342;10.802;2023-04-06T11:13:15;15.30;75.50
11152;DHT22;5630;49.342;10.802;2023-04-06T11:15:40;15.70;72.30
11152;DHT22;5630;49.342;10.802;2023-04-06T11:18:06;15.90;70.60
11152;DHT22;5630;49.342;10.802;2023-04-06T11:20:32;15.90;70.40
11152;DHT22;5630;49.342;10.802;2023-04-06T11:22:57;15.60;72.10
11152;DHT22;5630;49.342;10.802;2023-04-06T11:25:24;15.60;71.60
11152;DHT22;5630;49.342;10.802;2023-04-06T11:27:51;16.10;70.90
11152;DHT22;5630;49.342;10.802;2023-04-06T11:30:17;15.90;71.00
11152;DHT22;5630;49.342;10.802;2023-04-06T11:32:44;15.60;69.50
11152;DHT22;5630;49.342;10.802;2023-04-06T11:35:23;15.60;71.70
11152;DHT22;5630;49.342;10.802;2023-04-06T11:37:49;16.00;70.30
11152;DHT22;5630;49.342;10.802;2023-04-06T11:40:15;16.00;69.00
11152;DHT22;5630;49.342;10.802;2023-04-06T11:42:55;16.20;68.90
11152;DHT22;5630;49.342;10.802;2023-04-06T11:45:21;16.50;69.50
11152;DHT22;5630;49.342;10.802;2023-04-06T11:47:58;16.30;70.00
11152;DHT22;5630;49.342;10.802;2023-04-06T11:50:24;16.70;68.50
11152;DHT22;5630;49.342;10.802;2023-04-06T11:53:01;16.80;68.40
11152;DHT22;5630;49.342;10.802;2023-04-06T11:55:26;16.10;67.70
11152;DHT22;5630;49.342;10.802;2023-04-06T11:57:52;16.30;65.80
11152;DHT22;5630;49.342;10.802;2023-04-06T12:00:18;16.50;65.30
11152;DHT22;5630;49.342;10.802;2023-04-06T12:02:47;16.70;64.50
11152;DHT22;5630;49.342;10.802;2023-04-06T12:05:13;17.10;66.50
11152;DHT22;5630;49.342;10.802;2023-04-06T12:07:38;15.90;64.70
11152;DHT22;5630;49.342;10.802;2023-04-06T12:10:04;16.40;68.30
11152;DHT22;5630;49.342;10.802;2023-04-06T12:12:30;16.60;64.00
11152;DHT22;5630;49.342;10.802;2023-04-06T12:14:56;16.70;64.30
11152;DHT22;5630;49.342;10.802;2023-04-06T12:17:22;16.80;65.70
11152;DHT22;5630;49.342;10.802;2023-04-06T12:19:49;16.80;66.10
11152;DHT22;5630;49.342;10.802;2023-04-06T12:22:14;16.90;62.60
11152;DHT22;5630;49.342;10.802;2023-04-06T12:24:40;16.50;64.60
11152;DHT22;5630;49.342;10.802;2023-04-06T12:27:06;17.00;64.10
11152;DHT22;5630;49.342;10.802;2023-04-06T12:29:32;17.00;64.90
11152;DHT22;5630;49.342;10.802;2023-04-06T12:31:57;17.40;63.60
11152;DHT22;5630;49.342;10.802;2023-04-06T12:34:23;17.50;60.50
11152;DHT22;5630;49.342;10.802;2023-04-06T12:36:49;17.60;61.10
11152;DHT22;5630;49.342;10.802;2023-04-06T12:39:15;17.70;61.20
11152;DHT22;5630;49.342;10.802;2023-04-06T12:41:41;17.50;64.20
11152;DHT22;5630;49.342;10.802;2023-04-06T12:44:06;17.80;60.70
11152;DHT22;5630;49.342;10.802;2023-04-06T12:46:32;17.70;59.00
11152;DHT22;5630;49.342;10.802;2023-04-06T12:48:58;17.70;59.60
11152;DHT22;5630;49.342;10.802;2023-04-06T12:51:27;17.60;61.00
11152;DHT22;5630;49.342;10.802;2023-04-06T12:53:53;17.40;60.40
11152;DHT22;5630;49.342;10.802;2023-04-06T12:56:18;17.40;60.90
11152;DHT22;5630;49.342;10.802;2023-04-06T12:58:44;17.10;60.60
11152;DHT22;5630;49.342;10.802;2023-04-06T13:01:10;17.40;59.80
11152;DHT22;5630;49.342;10.802;2023-04-06T13:03:42;17.40;59.70
11152;DHT22;5630;49.342;10.802;2023-04-06T13:06:08;17.60;59.80
11152;DHT22;5630;49.342;10.802;2023-04-06T13:08:34;17.60;59.00
11152;DHT22;5630;49.342;10.802;2023-04-06T13:10:59;17.50;59.50
11152;DHT22;5630;49.342;10.802;2023-04-06T13:13:27;17.40;59.80
11152;DHT22;5630;49.342;10.802;2023-04-06T13:15:54;17.10;59.30
11152;DHT22;5630;49.342;10.802;2023-04-06T13:18:21;17.10;58.40
11152;DHT22;5630;49.342;10.802;2023-04-06T13:20:48;17.10;59.20
11152;DHT22;5630;49.342;10.802;2023-04-06T13:23:14;17.10;60.60
11152;DHT22;5630;49.342;10.802;2023-04-06T13:25:40;16.90;61.00
11152;DHT22;5630;49.342;10.802;2023-04-06T13:28:05;16.50;63.20
11152;DHT22;5630;49.342;10.802;2023-04-06T13:30:31;15.70;63.30
11152;DHT22;5630;49.342;10.802;2023-04-06T13:32:56;15.50;65.10
11152;DHT22;5630;49.342;10.802;2023-04-06T13:35:22;15.70;63.80
11152;DHT22;5630;49.342;10.802;2023-04-06T13:37:48;15.90;63.70
11152;DHT22;5630;49.342;10.802;2023-04-06T13:40:14;15.70;65.60
11152;DHT22;5630;49.342;10.802;2023-04-06T13:42:40;15.70;65.90
11152;DHT22;5630;49.342;10.802;2023-04-06T13:45:06;15.60;64.40
11152;DHT22;5630;49.342;10.802;2023-04-06T13:47:32;15.50;63.00
11152;DHT22;5630;49.342;10.802;2023-04-06T13:49:58;15.30;64.00
11152;DHT22;5630;49.342;10.802;2023-04-06T13:52:23;14.90;64.40
11152;DHT22;5630;49.342;10.802;2023-04-06T13:54:49;14.90;65.90
11152;DHT22;5630;49.342;10.802;2023-04-06T13:57:15;14.70;66.10
11152;DHT22;5630;49.342;10.802;2023-04-06T13:59:41;14.70;65.30
11152;DHT22;5630;49.342;10.802;2023-04-06T14:02:08;14.60;65.30
11152;DHT22;5630;49.342;10.802;2023-04-06T14:04:34;14.40;67.90
11152;DHT22;5630;49.342;10.802;2023-04-06T14:07:01;14.30;66.30
11152;DHT22;5630;49.342;10.802;2023-04-06T14:09:27;14.00;66.60
11152;DHT22;5630;49.342;10.802;2023-04-06T14:11:53;14.00;65.90
11152;DHT22;5630;49.342;10.802;2023-04-06T14:14:20;14.30;65.80
11152;DHT22;5630;49.342;10.802;2023-04-06T14:16:46;14.40;65.40
11152;DHT22;5630;49.342;10.802;2023-04-06T14:19:14;14.20;64.30
11152;DHT22;5630;49.342;10.802;2023-04-06T14:21:41;14.20;65.30
11152;DHT22;5630;49.342;10.802;2023-04-06T14:24:07;14.40;64.80
11152;DHT22;5630;49.342;10.802;2023-04-06T14:26:37;14.50;65.10
11152;DHT22;5630;49.342;10.802;2023-04-06T14:29:05;14.60;65.40
11152;DHT22;5630;49.342;10.802;2023-04-06T14:31:32;14.80;67.80
11152;DHT22;5630;49.342;10.802;2023-04-06T14:33:58;14.90;65.50
11152;DHT22;5630;49.342;10.802;2023-04-06T14:36:25;14.90;66.00
11152;DHT22;5630;49.342;10.802;2023-04-06T14:38:53;14.80;65.60
11152;DHT22;5630;49.342;10.802;2023-04-06T14:41:23;14.60;65.80
11152;DHT22;5630;49.342;10.802;2023-04-06T14:43:49;14.50;66.00
11152;DHT22;5630;49.342;10.802;2023-04-06T14:46:15;14.50;65.40
11152;DHT22;5630;49.342;10.802;2023-04-06T14:48:43;14.50;65.40
11152;DHT22;5630;49.342;10.802;2023-04-06T14:51:10;14.50;65.30
11152;DHT22;5630;49.342;10.802;2023-04-06T14:53:36;14.60;65.50
11152;DHT22;5630;49.342;10.802;2023-04-06T14:56:02;14.20;64.80
11152;DHT22;5630;49.342;10.802;2023-04-06T14:58:28;14.20;65.40
11152;DHT22;5630;49.342;10.802;2023-04-06T15:01:00;14.20;63.60
11152;DHT22;5630;49.342;10.802;2023-04-06T15:03:26;14.20;63.70
11152;DHT22;5630;49.342;10.802;2023-04-06T15:05:53;14.10;63.50
11152;DHT22;5630;49.342;10.802;2023-04-06T15:08:19;13.60;62.90
11152;DHT22;5630;49.342;10.802;2023-04-06T15:10:48;13.70;66.80
11152;DHT22;5630;49.342;10.802;2023-04-06T15:13:14;13.80;65.60
11152;DHT22;5630;49.342;10.802;2023-04-06T15:15:40;13.80;64.40
11152;DHT22;5630;49.342;10.802;2023-04-06T15:18:07;13.90;64.60
11152;DHT22;5630;49.342;10.802;2023-04-06T15:20:33;13.80;64.40
11152;DHT22;5630;49.342;10.802;2023-04-06T15:22:58;13.80;64.90
11152;DHT22;5630;49.342;10.802;2023-04-06T15:25:25;13.40;65.20
11152;DHT22;5630;49.342;10.802;2023-04-06T15:27:50;13.50;66.10
11152;DHT22;5630;49.342;10.802;2023-04-06T15:30:17;13.40;66.40
11152;DHT22;5630;49.342;10.802;2023-04-06T15:32:59;13.40;66.70
11152;DHT22;5630;49.342;10.802;2023-04-06T15:35:29;13.30;67.70